Vremea acum in Strehaia - Romania

Vrei sa afli care e starea vremii acum in Mehedinti - Romania? Dorim sa iti furnizam starea vremii pentru Mehedinti - Romania. Starea vremii Mehedinti - Romania pentru astazi.

Vremea acum in Strehaia

Temperatura: 10.6 °C

Este: Senin
Se simte ca: 9.9 °C
Innorat: 4 %
Precipitatii: 0 %
Presiune atmosferica: 1017 hPa
Umiditate: 76%
Vizibilitate: 10 km
Vantul bate din NNW cu 7.2 km/h

Evolutia vremii in Strehaia pe ore

Ora: 04:00
Senin
Temperatura: 9.6°C
Sansa de precipitatii: 0%
Ora Descriere Temp Se simte Precipitatii Umiditate Vant
00:00Senin11°10.4°0%75%NW 7.2 KM/H
01:00Senin10.6°9.9°0%76%NNW 7.2 KM/H
02:00Senin10.2°9.5°0%76%NNW 6.5 KM/H
03:00Senin9.9°9.1°0%76%NNW 7.2 KM/H
04:00Senin9.6°0%75%NNW 6.1 KM/H
05:00Senin9.5°8.8°0%75%NNW 6.1 KM/H
06:00Senin9.3°8.9°0%74%NNW 5 KM/H
07:00Senin9.9°10°0%73%NNW 4 KM/H
08:00Senin13.6°13.6°0%66%NNW 2.5 KM/H
09:00Senin16.7°16.7°0%60%SE 0.4 KM/H
10:00Senin18.7°18.7°0%56%SE 2.5 KM/H
11:00Senin20.4°20.4°0%52%SE 5 KM/H
12:00Senin21.6°21.6°0%49%SE 7.6 KM/H
13:00Senin22.6°24.5°0%47%SSE 8.3 KM/H
14:00Senin23.4°24.7°0%45%SSE 8.6 KM/H
15:00Senin24°24.9°0%43%S 8.6 KM/H
16:00Senin24.2°24.9°0%41%S 9 KM/H
17:00Senin24.1°24.9°0%41%S 8.6 KM/H
18:00Senin23.8°24.8°0%42%SSE 7.6 KM/H
19:00Senin22.9°24.8°0%53%SSE 5 KM/H
20:00Senin17.9°17.9°0%58%SSE 5 KM/H
21:00Senin15.3°15.3°0%61%SE 4 KM/H
22:00Senin14°14°0%65%WSW 0.7 KM/H
23:00Senin13.2°13.9°0%68%NNE 3.2 KM/H




tutorials